createdAt,value
2019-06-01T00:00:11.608Z,1.81
2019-06-01T00:03:06.567Z,0.15
2019-06-01T00:04:06.540Z,0.25
2019-06-01T00:05:06.558Z,0.39
2019-06-01T00:06:06.547Z,0.89
2019-06-01T00:09:06.558Z,0.10
2019-06-01T00:10:06.531Z,0.44
2019-06-01T00:11:06.564Z,0.17
2019-06-01T00:12:06.550Z,0.00
2019-06-01T00:15:06.585Z,0.49
2019-06-01T00:16:06.541Z,0.90
2019-06-01T00:17:06.591Z,0.39
2019-06-01T00:18:06.592Z,0.99
2019-06-01T00:21:06.555Z,0.47
2019-06-01T00:22:06.605Z,0.03
2019-06-01T00:23:06.614Z,0.01
2019-06-01T00:24:06.590Z,0.00
2019-06-01T00:27:06.604Z,0.00
2019-06-01T00:28:06.552Z,0.25
2019-06-01T00:29:06.579Z,0.22
2019-06-01T00:30:06.561Z,0.00
2019-06-01T00:33:06.620Z,0.70
2019-06-01T00:34:06.618Z,0.90
2019-06-01T00:35:06.613Z,0.34
2019-06-01T00:36:06.583Z,0.33
2019-06-01T00:39:06.615Z,0.00
2019-06-01T00:40:06.586Z,0.00
2019-06-01T00:41:06.617Z,0.24
2019-06-01T00:42:06.617Z,0.15
2019-06-01T00:45:06.618Z,0.26
2019-06-01T00:46:06.563Z,0.00
2019-06-01T00:47:06.629Z,0.00
2019-06-01T00:48:06.579Z,0.21
2019-06-01T00:51:06.595Z,0.00
2019-06-01T00:52:06.580Z,0.03
2019-06-01T00:53:06.607Z,0.07
2019-06-01T00:54:06.588Z,0.26
2019-06-01T00:57:06.647Z,0.61
2019-06-01T00:58:06.573Z,0.21
2019-06-01T00:59:06.635Z,0.59
2019-06-01T01:00:06.631Z,0.49
2019-06-01T01:03:06.611Z,0.17
2019-06-01T01:04:06.634Z,0.00
2019-06-01T01:05:06.646Z,0.24
2019-06-01T01:06:06.638Z,0.54
2019-06-01T01:09:06.602Z,0.70
2019-06-01T01:10:06.587Z,0.01
2019-06-01T01:11:06.644Z,0.93
2019-06-01T01:12:06.641Z,0.19
2019-06-01T01:15:06.640Z,0.00
2019-06-01T01:16:06.586Z,0.09
2019-06-01T01:17:06.656Z,0.00
2019-06-01T01:18:06.652Z,0.24
2019-06-01T01:21:06.606Z,0.32
2019-06-01T01:22:06.652Z,0.00
2019-06-01T01:23:06.631Z,0.00
2019-06-01T01:24:06.604Z,0.00
2019-06-01T01:27:06.635Z,0.23
2019-06-01T01:28:06.593Z,0.12
2019-06-01T01:29:06.660Z,0.22
2019-06-01T01:30:06.660Z,0.00
2019-06-01T01:33:06.607Z,0.72
2019-06-01T01:34:06.659Z,0.17
2019-06-01T01:35:06.676Z,0.71
2019-06-01T01:36:06.659Z,0.31
2019-06-01T01:39:06.657Z,0.11
2019-06-01T01:40:06.610Z,0.11
2019-06-01T01:41:06.660Z,0.00
2019-06-01T01:42:06.667Z,0.00
2019-06-01T01:45:06.689Z,0.00
2019-06-01T01:46:06.679Z,0.00
2019-06-01T01:47:06.669Z,0.00
2019-06-01T01:48:06.669Z,0.00
2019-06-01T01:51:06.682Z,0.00
2019-06-01T01:52:06.620Z,0.00
2019-06-01T01:53:06.690Z,0.00
2019-06-01T01:54:06.660Z,0.03
2019-06-01T01:57:07.288Z,0.10
2019-06-01T01:58:06.678Z,0.00
2019-06-01T01:59:06.652Z,0.00
2019-06-01T02:00:06.640Z,0.00
2019-06-01T02:03:06.682Z,0.35
2019-06-01T02:04:06.669Z,0.43
2019-06-01T02:05:06.701Z,0.03
2019-06-01T02:06:06.687Z,0.04
2019-06-01T02:09:06.707Z,0.00
2019-06-01T02:10:06.635Z,0.00
2019-06-01T02:11:06.690Z,0.00
2019-06-01T02:12:06.683Z,0.00
2019-06-01T02:15:06.698Z,0.00
2019-06-01T02:16:06.642Z,0.00
2019-06-01T02:17:06.690Z,0.00
2019-06-01T02:18:06.710Z,0.00
2019-06-01T02:21:06.707Z,0.39
2019-06-01T02:22:06.643Z,0.31
2019-06-01T02:23:06.689Z,0.50
2019-06-01T02:24:06.667Z,0.00
2019-06-01T02:27:06.669Z,0.19
2019-06-01T02:28:06.708Z,0.28
2019-06-01T02:29:06.668Z,0.01
2019-06-01T02:30:06.671Z,0.20
2019-06-01T02:33:06.710Z,0.26
2019-06-01T02:34:06.682Z,0.01
2019-06-01T02:35:06.726Z,0.00
2019-06-01T02:36:06.702Z,0.04
2019-06-01T02:39:06.712Z,0.00
2019-06-01T02:40:06.710Z,0.00
2019-06-01T02:41:06.679Z,0.00
2019-06-01T02:42:06.694Z,0.00
2019-06-01T02:45:06.679Z,0.00
2019-06-01T02:46:07.406Z,0.00
2019-06-01T02:47:06.691Z,0.00
2019-06-01T02:48:06.892Z,0.00
2019-06-01T02:51:06.722Z,0.39
2019-06-01T02:52:06.671Z,0.00
2019-06-01T02:53:06.760Z,0.00
2019-06-01T02:54:06.724Z,0.00
2019-06-01T02:57:06.730Z,0.00
2019-06-01T02:58:06.918Z,0.00
2019-06-01T02:59:06.870Z,0.00
2019-06-01T03:00:06.792Z,0.00
2019-06-01T03:03:06.955Z,0.00
2019-06-01T03:04:08.179Z,0.00
2019-06-01T03:05:07.656Z,0.00
2019-06-01T03:06:07.709Z,0.00
2019-06-01T03:09:08.733Z,0.00
2019-06-01T03:10:07.067Z,0.00
2019-06-01T03:11:07.997Z,0.00
2019-06-01T03:12:06.730Z,0.00
2019-06-01T03:15:06.764Z,0.00
2019-06-01T03:16:06.695Z,0.00
2019-06-01T03:17:07.883Z,0.00
2019-06-01T03:18:07.739Z,0.00
2019-06-01T03:21:07.879Z,0.00
2019-06-01T03:22:07.313Z,0.00
2019-06-01T03:23:07.742Z,0.00
2019-06-01T03:24:08.049Z,0.00
2019-06-01T03:27:06.711Z,0.00
2019-06-01T03:28:06.699Z,0.00
2019-06-01T03:29:07.330Z,0.00
2019-06-01T03:30:08.879Z,0.00
2019-06-01T03:33:08.640Z,0.00
2019-06-01T03:34:08.750Z,0.00
2019-06-01T03:35:06.815Z,0.00
2019-06-01T03:36:06.942Z,0.00
2019-06-01T03:39:06.717Z,0.00
2019-06-01T03:40:14.169Z,0.00
2019-06-01T03:41:06.753Z,0.00
2019-06-01T03:42:07.978Z,0.00
2019-06-01T03:45:07.628Z,0.00
2019-06-01T03:46:06.738Z,0.07
2019-06-01T03:47:07.602Z,0.00
2019-06-01T03:48:06.866Z,0.00
2019-06-01T03:51:08.305Z,0.06
2019-06-01T03:52:06.962Z,0.00
2019-06-01T03:53:07.893Z,0.00
2019-06-01T03:54:08.276Z,0.00
2019-06-01T03:57:07.282Z,0.00
2019-06-01T03:58:07.272Z,0.00
2019-06-01T03:59:07.262Z,0.00
2019-06-01T04:00:07.175Z,0.00
2019-06-01T04:03:07.160Z,0.00
2019-06-01T04:04:07.175Z,0.00
2019-06-01T04:05:07.395Z,0.00
2019-06-01T04:06:07.368Z,0.00
2019-06-01T04:09:07.687Z,0.01
2019-06-01T04:10:07.965Z,0.00
2019-06-01T04:11:07.755Z,0.06
2019-06-01T04:12:07.679Z,0.09
2019-06-01T04:15:11.176Z,0.00
2019-06-01T04:16:07.851Z,0.00
2019-06-01T04:17:08.026Z,0.00
2019-06-01T04:18:08.001Z,0.00
2019-06-01T04:21:08.035Z,0.00
2019-06-01T04:22:07.956Z,0.00
2019-06-01T04:23:08.005Z,0.00
2019-06-01T04:24:07.989Z,0.00
2019-06-01T04:27:08.134Z,0.00
2019-06-01T04:28:06.752Z,0.00
2019-06-01T04:29:06.822Z,0.00
2019-06-01T04:30:06.857Z,0.00
2019-06-01T04:33:07.042Z,0.00
2019-06-01T04:34:06.827Z,0.00
2019-06-01T04:35:07.359Z,0.00
2019-06-01T04:36:06.924Z,0.00
2019-06-01T04:39:07.321Z,0.00
2019-06-01T04:40:07.438Z,0.36
2019-06-01T04:41:07.602Z,0.05
2019-06-01T04:42:07.714Z,0.00
2019-06-01T04:45:07.084Z,0.00
2019-06-01T04:46:07.866Z,0.00
2019-06-01T04:47:06.867Z,0.53
2019-06-01T04:48:06.818Z,0.06
2019-06-01T04:51:06.831Z,0.00
2019-06-01T04:52:06.846Z,0.00
2019-06-01T04:53:06.923Z,0.00
2019-06-01T04:54:06.942Z,0.00
2019-06-01T04:57:06.865Z,0.03
2019-06-01T04:58:06.878Z,0.00
2019-06-01T04:59:06.891Z,0.00
2019-06-01T05:00:19.712Z,0.00
2019-06-01T05:03:08.478Z,0.00
2019-06-01T05:04:07.119Z,0.08
2019-06-01T05:05:07.180Z,0.84
2019-06-01T05:06:07.222Z,0.03
2019-06-01T05:09:07.269Z,0.00
2019-06-01T05:10:07.438Z,0.00
2019-06-01T05:11:07.416Z,0.00
2019-06-01T05:12:07.500Z,0.01
2019-06-01T05:15:07.583Z,0.14
2019-06-01T05:16:07.894Z,0.20
2019-06-01T05:17:07.883Z,0.01
2019-06-01T05:18:07.847Z,0.26
2019-06-01T05:21:06.803Z,0.00
2019-06-01T05:22:06.848Z,0.00
2019-06-01T05:23:06.835Z,0.00
2019-06-01T05:24:06.839Z,0.20
2019-06-01T05:27:06.936Z,0.12
2019-06-01T05:28:07.051Z,0.00
2019-06-01T05:29:07.472Z,0.00
2019-06-01T05:30:07.334Z,0.00
2019-06-01T05:33:22.435Z,0.00
2019-06-01T05:34:07.725Z,0.62
2019-06-01T05:35:07.743Z,0.46
2019-06-01T05:36:07.993Z,0.76
2019-06-01T05:39:08.134Z,0.10
2019-06-01T05:40:06.860Z,0.71
2019-06-01T05:41:06.852Z,0.42
2019-06-01T05:42:06.817Z,0.35
2019-06-01T05:45:06.833Z,0.45
2019-06-01T05:46:06.872Z,0.79
2019-06-01T05:47:06.869Z,0.15
2019-06-01T05:48:06.854Z,0.13
2019-06-01T05:51:06.849Z,0.26
2019-06-01T05:52:06.876Z,0.48
2019-06-01T05:53:06.873Z,0.34
2019-06-01T05:54:06.838Z,0.79
2019-06-01T05:57:06.837Z,0.77
2019-06-01T05:58:06.885Z,0.08
2019-06-01T05:59:06.877Z,0.54
2019-06-01T06:00:06.853Z,1.13
2019-06-01T06:03:06.866Z,0.04
2019-06-01T06:04:06.873Z,0.24
2019-06-01T06:05:06.858Z,1.48
2019-06-01T06:06:06.849Z,0.57
2019-06-01T06:08:09.890Z,0.58
2019-06-01T06:09:11.363Z,0.42
2019-06-01T06:10:09.911Z,0.52
2019-06-01T06:11:10.830Z,0.18
2019-06-01T06:14:11.378Z,1.46
2019-06-01T06:15:09.872Z,0.94
2019-06-01T06:16:09.898Z,0.01
2019-06-01T06:17:13.703Z,0.00
2019-06-01T06:20:09.902Z,1.29
2019-06-01T06:21:09.885Z,1.06
2019-06-01T06:22:09.932Z,1.10
2019-06-01T06:23:09.927Z,1.31
2019-06-01T06:25:09.950Z,0.69
2019-06-01T06:26:09.904Z,2.96
2019-06-01T06:27:09.890Z,2.05
2019-06-01T06:28:09.874Z,2.63
2019-06-01T06:31:09.946Z,3.93
2019-06-01T06:32:09.902Z,1.81
2019-06-01T06:33:09.902Z,0.27
2019-06-01T06:34:09.934Z,2.28
2019-06-01T06:36:09.903Z,1.63
2019-06-01T06:37:09.949Z,1.83
2019-06-01T06:38:09.902Z,1.92
2019-06-01T06:39:09.905Z,2.58
2019-06-01T06:42:09.903Z,2.83
2019-06-01T06:43:19.206Z,2.07
2019-06-01T06:44:09.918Z,2.03
2019-06-01T06:45:09.920Z,0.91
2019-06-01T06:47:09.930Z,2.59
2019-06-01T06:48:09.907Z,1.31
2019-06-01T06:49:10.165Z,1.15
2019-06-01T06:50:09.923Z,0.07
2019-06-01T06:52:10.003Z,0.01
2019-06-01T06:53:22.396Z,1.46
2019-06-01T06:54:09.952Z,2.39
2019-06-01T06:55:09.923Z,1.36
2019-06-01T06:58:09.912Z,0.83
2019-06-01T06:59:11.795Z,1.22
2019-06-01T07:00:09.926Z,1.64
2019-06-01T07:01:12.156Z,3.11
2019-06-01T07:03:09.933Z,1.67
2019-06-01T07:04:12.623Z,1.34
2019-06-01T07:05:09.935Z,0.88
2019-06-01T07:06:09.936Z,1.04
2019-06-01T07:08:09.961Z,2.79
2019-06-01T07:09:09.941Z,2.54
2019-06-01T07:10:09.969Z,3.50
2019-06-01T07:11:11.926Z,2.87
2019-06-01T07:14:09.995Z,2.68
2019-06-01T07:15:09.936Z,6.61
2019-06-01T07:16:09.987Z,3.09
2019-06-01T07:17:10.000Z,0.86
2019-06-01T07:20:09.970Z,3.84
2019-06-01T07:21:09.932Z,1.77
2019-06-01T07:22:09.977Z,3.60
2019-06-01T07:23:09.967Z,1.48
2019-06-01T07:25:09.949Z,3.69
2019-06-01T07:26:09.971Z,3.00
2019-06-01T07:27:09.974Z,2.70
2019-06-01T07:28:09.993Z,4.63
2019-06-01T07:31:09.983Z,4.41
2019-06-01T07:32:09.955Z,5.40
2019-06-01T07:33:11.403Z,5.09
2019-06-01T07:34:10.008Z,3.29
2019-06-01T07:37:09.985Z,4.10
2019-06-01T07:38:09.982Z,5.33
2019-06-01T07:39:09.966Z,3.24
2019-06-01T07:40:13.403Z,3.10
2019-06-01T07:42:09.996Z,4.40
2019-06-01T07:43:10.008Z,3.43
2019-06-01T07:44:10.027Z,5.44
2019-06-01T07:45:09.951Z,4.16
2019-06-01T07:48:09.970Z,3.41
2019-06-01T07:49:10.016Z,2.21
2019-06-01T07:50:09.987Z,2.77
2019-06-01T07:51:09.968Z,3.59
2019-06-01T08:04:12.397Z,0.96
2019-06-01T08:05:12.408Z,1.95
2019-06-01T08:06:12.417Z,2.75
2019-06-01T08:07:12.465Z,2.10
2019-06-01T08:08:12.434Z,3.91
2019-06-01T08:09:12.429Z,3.01
2019-06-01T08:10:12.513Z,3.41
2019-06-01T08:11:12.430Z,3.07
2019-06-01T08:12:12.434Z,2.57
2019-06-01T08:13:12.419Z,4.44
2019-06-01T08:14:12.468Z,3.78
2019-06-01T08:15:12.482Z,4.09
2019-06-01T08:16:12.471Z,4.96
2019-06-01T08:17:12.427Z,2.86
2019-06-01T08:18:12.448Z,3.09
2019-06-01T08:19:12.452Z,2.83
2019-06-01T08:20:12.464Z,1.07
2019-06-01T08:21:12.482Z,1.61
2019-06-01T08:22:12.478Z,1.22
2019-06-01T08:23:12.464Z,2.32
2019-06-01T08:24:12.497Z,3.17
2019-06-01T08:25:12.468Z,3.07
2019-06-01T08:26:12.472Z,2.21
2019-06-01T08:27:12.485Z,2.99
2019-06-01T08:28:15.540Z,2.47
2019-06-01T08:29:15.488Z,4.29
2019-06-01T08:30:15.488Z,5.79
2019-06-01T08:31:15.495Z,5.00
2019-06-01T08:32:15.455Z,3.62
2019-06-01T08:33:15.506Z,4.82
2019-06-01T08:34:15.506Z,2.32
2019-06-01T08:35:15.516Z,2.01
2019-06-01T08:36:15.516Z,3.30
2019-06-01T08:37:15.518Z,3.91
2019-06-01T08:38:15.513Z,2.46
2019-06-01T08:39:15.518Z,3.25
2019-06-01T08:40:15.623Z,2.46
2019-06-01T08:41:15.504Z,1.30
2019-06-01T08:42:15.513Z,0.73
2019-06-01T08:43:15.539Z,1.23
2019-06-01T08:44:15.467Z,2.14
2019-06-01T08:45:15.518Z,5.27
2019-06-01T08:46:15.511Z,2.12
2019-06-01T08:47:15.499Z,1.96
2019-06-01T08:48:15.480Z,1.56
2019-06-01T08:49:15.532Z,4.54
2019-06-01T08:50:15.488Z,1.80
2019-06-01T08:51:15.530Z,2.77
2019-06-01T08:52:15.540Z,2.64
2019-06-01T08:53:15.485Z,2.13
2019-06-01T08:54:15.509Z,1.69
2019-06-01T08:55:15.511Z,4.98
2019-06-01T08:56:15.520Z,3.31
2019-06-01T08:57:15.541Z,2.15
2019-06-01T08:58:15.538Z,2.06
2019-06-01T08:59:15.517Z,3.29
2019-06-01T09:00:15.476Z,3.85
2019-06-01T09:01:15.521Z,3.12
2019-06-01T09:02:15.507Z,2.68
2019-06-01T09:03:15.573Z,2.59
2019-06-01T09:04:15.595Z,2.66
2019-06-01T09:06:15.482Z,2.28
2019-06-01T09:07:15.513Z,3.84
2019-06-01T09:08:15.493Z,2.75
2019-06-01T09:09:15.532Z,1.30
2019-06-01T09:10:15.584Z,2.19
2019-06-01T09:11:15.543Z,2.73
2019-06-01T09:12:15.531Z,1.71
2019-06-01T09:13:15.530Z,1.99
2019-06-01T09:14:15.507Z,1.77
2019-06-01T09:15:15.555Z,2.48
2019-06-01T09:16:15.585Z,2.11
2019-06-01T09:17:18.532Z,3.79
2019-06-01T09:18:15.559Z,3.20
2019-06-01T09:19:15.490Z,5.11
2019-06-01T09:20:15.566Z,5.14
2019-06-01T09:21:15.532Z,5.65
2019-06-01T09:22:15.564Z,4.64
2019-06-01T09:23:15.539Z,1.77
2019-06-01T09:24:15.542Z,4.29
2019-06-01T09:25:15.541Z,3.19
2019-06-01T09:26:15.562Z,3.76
2019-06-01T09:27:15.542Z,4.36
2019-06-01T09:28:15.557Z,3.40
2019-06-01T09:29:15.526Z,2.37
2019-06-01T09:30:15.554Z,2.12
2019-06-01T09:31:15.555Z,2.84
2019-06-01T09:32:15.531Z,1.44
2019-06-01T09:33:15.565Z,3.11
2019-06-01T09:34:15.574Z,2.47
2019-06-01T09:35:15.567Z,2.73
2019-06-01T09:36:15.591Z,1.36
2019-06-01T09:37:15.572Z,1.87
2019-06-01T09:38:15.522Z,4.48
2019-06-01T09:39:15.575Z,2.78
2019-06-01T09:40:15.569Z,0.85
2019-06-01T09:41:15.585Z,0.81
2019-06-01T09:42:15.583Z,2.04
2019-06-01T09:43:15.563Z,2.39
2019-06-01T09:44:15.539Z,1.82
2019-06-01T09:45:15.584Z,4.64
2019-06-01T09:46:15.601Z,1.96
2019-06-01T09:47:15.570Z,2.09
2019-06-01T09:48:15.606Z,1.85
2019-06-01T09:49:15.578Z,4.59
2019-06-01T09:50:15.556Z,3.84
2019-06-01T09:51:15.590Z,1.71
2019-06-01T09:52:15.630Z,1.89
2019-06-01T09:53:15.557Z,1.66
2019-06-01T09:54:15.533Z,1.10
2019-06-01T09:55:15.590Z,3.95
2019-06-01T09:56:15.561Z,2.35
2019-06-01T09:57:15.590Z,1.96
2019-06-01T09:58:15.625Z,3.00
2019-06-01T09:59:15.577Z,1.28
2019-06-01T10:00:15.601Z,4.32
2019-06-01T10:01:15.602Z,2.32
2019-06-01T10:02:15.586Z,4.03
2019-06-01T10:03:15.617Z,4.67
2019-06-01T10:04:15.601Z,2.86
2019-06-01T10:05:15.545Z,2.91
2019-06-01T10:06:15.644Z,1.85
2019-06-01T10:07:15.599Z,2.24
2019-06-01T10:08:15.574Z,2.06
2019-06-01T10:09:15.612Z,3.46
2019-06-01T10:10:15.691Z,3.89
2019-06-01T10:11:15.611Z,3.38
2019-06-01T10:12:15.603Z,3.84
2019-06-01T10:13:15.609Z,2.71
2019-06-01T10:14:15.567Z,4.46
2019-06-01T10:15:15.610Z,4.27
2019-06-01T10:16:15.638Z,3.19
2019-06-01T10:17:15.587Z,4.99
2019-06-01T10:18:15.595Z,3.08
2019-06-01T10:19:15.616Z,1.29
2019-06-01T10:20:15.619Z,1.92
2019-06-01T10:21:15.588Z,1.64
2019-06-01T10:22:15.625Z,1.99
2019-06-01T10:23:15.594Z,1.92
2019-06-01T10:24:15.633Z,3.07
2019-06-01T10:25:15.615Z,1.85
2019-06-01T10:26:15.616Z,0.97
2019-06-01T10:27:15.624Z,1.08
2019-06-01T10:28:15.612Z,4.59
2019-06-01T10:29:15.587Z,4.69
2019-06-01T10:30:15.660Z,5.49
2019-06-01T10:31:15.625Z,6.38
2019-06-01T10:32:15.597Z,2.62
2019-06-01T10:33:15.609Z,3.77
2019-06-01T10:34:15.678Z,1.97
2019-06-01T10:35:15.603Z,1.87
2019-06-01T10:36:20.790Z,3.45
2019-06-01T10:37:15.620Z,4.56
2019-06-01T10:38:15.627Z,2.40
2019-06-01T10:39:19.436Z,2.23
2019-06-01T10:40:15.695Z,5.79
2019-06-01T10:41:15.604Z,5.21
2019-06-01T10:42:15.639Z,4.13
2019-06-01T10:43:15.638Z,3.89
2019-06-01T10:44:15.605Z,4.97
2019-06-01T10:45:15.650Z,2.64
2019-06-01T10:46:15.656Z,3.49
2019-06-01T10:47:15.664Z,1.97
2019-06-01T10:48:15.655Z,1.53
2019-06-01T10:49:15.650Z,1.22
2019-06-01T10:50:17.435Z,3.91
2019-06-01T10:51:15.770Z,3.58
2019-06-01T10:52:15.662Z,2.47
2019-06-01T10:53:15.649Z,2.53
2019-06-01T10:54:15.662Z,2.79
2019-06-01T10:55:15.641Z,1.11
2019-06-01T10:56:15.622Z,0.79
2019-06-01T10:57:15.659Z,2.67
2019-06-01T10:58:15.660Z,4.50
2019-06-01T10:59:15.623Z,3.51
2019-06-01T11:00:15.622Z,2.55
2019-06-01T11:01:15.684Z,1.77
2019-06-01T11:02:15.629Z,6.56
2019-06-01T11:03:15.654Z,3.62
2019-06-01T11:04:15.660Z,1.99
2019-06-01T11:05:15.613Z,2.34
2019-06-01T11:06:15.658Z,4.28
2019-06-01T11:07:15.676Z,2.07
2019-06-01T11:08:15.666Z,2.47
2019-06-01T11:09:15.683Z,2.04
2019-06-01T11:10:15.668Z,2.44
2019-06-01T11:11:15.635Z,4.49
2019-06-01T11:12:15.660Z,3.60
2019-06-01T11:13:15.680Z,1.55
2019-06-01T11:14:15.646Z,6.04
2019-06-01T11:15:15.690Z,6.83
2019-06-01T11:16:15.690Z,4.97
2019-06-01T11:17:15.695Z,2.56
2019-06-01T11:18:15.655Z,1.98
2019-06-01T11:19:15.671Z,1.77
2019-06-01T11:20:15.651Z,3.34
2019-06-01T11:21:15.691Z,3.40
2019-06-01T11:22:15.708Z,3.16
2019-06-01T11:23:15.685Z,2.39
2019-06-01T11:24:15.689Z,3.96
2019-06-01T11:25:15.687Z,2.48
2019-06-01T11:26:15.661Z,4.41
2019-06-01T11:27:15.715Z,2.77
2019-06-01T11:28:15.706Z,1.94
2019-06-01T11:29:15.697Z,5.11
2019-06-01T11:30:15.659Z,3.23
2019-06-01T11:31:15.702Z,3.92
2019-06-01T11:32:15.668Z,4.18
2019-06-01T11:33:15.700Z,5.27
2019-06-01T11:34:15.691Z,5.34
2019-06-01T11:35:15.651Z,4.76
2019-06-01T11:36:15.684Z,6.33
2019-06-01T11:37:15.979Z,6.27
2019-06-01T11:38:15.692Z,5.87
2019-06-01T11:39:15.713Z,4.83
2019-06-01T11:40:15.702Z,2.83
2019-06-01T11:41:18.467Z,3.48
2019-06-01T11:42:19.582Z,2.10
2019-06-01T11:43:15.706Z,3.25
2019-06-01T11:44:15.670Z,3.95
2019-06-01T11:45:15.719Z,5.71
2019-06-01T11:46:15.756Z,4.82
2019-06-01T11:47:15.751Z,4.46
2019-06-01T11:48:15.700Z,3.15
2019-06-01T11:49:20.387Z,2.69
2019-06-01T11:50:15.672Z,2.88
2019-06-01T11:51:15.712Z,1.96
2019-06-01T11:52:15.815Z,1.42
2019-06-01T11:53:15.693Z,1.46
2019-06-01T11:54:15.713Z,1.19
2019-06-01T11:55:15.683Z,1.36
2019-06-01T11:56:15.692Z,1.46
2019-06-01T11:57:15.702Z,3.32
2019-06-01T11:58:15.849Z,5.39
2019-06-01T11:59:15.720Z,2.53
2019-06-01T12:00:15.724Z,3.66
2019-06-01T12:01:15.736Z,2.43
2019-06-01T12:02:15.700Z,1.32
2019-06-01T12:03:15.758Z,0.86
2019-06-01T12:04:15.802Z,2.48
2019-06-01T12:05:15.698Z,3.12
2019-06-01T12:06:15.727Z,1.78
2019-06-01T12:07:18.192Z,1.79
2019-06-01T12:08:15.751Z,1.97
2019-06-01T12:09:15.722Z,4.59
2019-06-01T12:10:15.745Z,3.78
2019-06-01T12:11:15.698Z,3.74
2019-06-01T12:12:15.704Z,4.04
2019-06-01T12:13:15.740Z,4.29
2019-06-01T12:14:15.782Z,6.86
2019-06-01T12:15:15.705Z,4.64
2019-06-01T12:16:15.790Z,4.16
2019-06-01T12:17:15.726Z,2.54
2019-06-01T12:18:15.726Z,4.06
2019-06-01T12:19:15.763Z,5.59
2019-06-01T12:20:15.720Z,3.75
2019-06-01T12:21:15.777Z,3.67
2019-06-01T12:22:15.780Z,4.20
2019-06-01T12:23:15.712Z,2.13
2019-06-01T12:24:15.747Z,2.42
2019-06-01T12:25:15.726Z,2.83
2019-06-01T12:26:15.766Z,3.46
2019-06-01T12:27:15.770Z,4.32
2019-06-01T12:28:15.815Z,4.45
2019-06-01T12:29:15.738Z,2.17
2019-06-01T12:30:15.725Z,1.86
2019-06-01T12:31:15.794Z,1.96
2019-06-01T12:32:15.709Z,1.43
2019-06-01T12:33:15.762Z,1.71
2019-06-01T12:34:17.131Z,3.09
2019-06-01T12:35:15.823Z,1.07
2019-06-01T12:36:15.755Z,1.08
2019-06-01T12:37:15.794Z,1.69
2019-06-01T12:38:15.733Z,0.96
2019-06-01T12:39:15.988Z,0.54
2019-06-01T12:40:15.802Z,1.76
2019-06-01T12:41:15.738Z,4.87
2019-06-01T12:42:15.796Z,1.81
2019-06-01T12:43:15.746Z,5.28
2019-06-01T12:44:15.761Z,3.71
2019-06-01T12:45:15.761Z,2.23
2019-06-01T12:46:15.815Z,2.46
2019-06-01T12:47:15.766Z,1.72
2019-06-01T12:48:15.786Z,2.04
2019-06-01T12:49:15.816Z,1.39
2019-06-01T12:50:15.819Z,0.59
2019-06-01T12:51:15.827Z,1.76
2019-06-01T12:52:15.854Z,3.58
2019-06-01T12:53:15.821Z,0.92
2019-06-01T12:54:16.975Z,2.27
2019-06-01T12:55:15.806Z,1.44
2019-06-01T12:56:15.848Z,1.64
2019-06-01T12:57:15.800Z,2.57
2019-06-01T12:58:15.791Z,4.20
2019-06-01T12:59:15.766Z,1.67
2019-06-01T13:00:15.796Z,1.89
2019-06-01T13:01:15.802Z,3.73
2019-06-01T13:02:15.753Z,2.52
2019-06-01T13:03:15.806Z,3.10
2019-06-01T13:04:15.823Z,1.49
2019-06-01T13:05:15.786Z,1.36
2019-06-01T13:06:15.829Z,1.49
2019-06-01T13:07:15.817Z,1.67
2019-06-01T13:08:15.785Z,1.44
2019-06-01T13:09:15.810Z,2.69
2019-06-01T13:10:15.827Z,3.46
2019-06-01T13:11:15.771Z,1.38
2019-06-01T13:12:15.838Z,2.85
2019-06-01T13:13:15.795Z,2.04
2019-06-01T13:14:15.801Z,2.43
2019-06-01T13:15:15.823Z,3.21
2019-06-01T13:16:15.836Z,3.17
2019-06-01T13:17:15.769Z,3.96
2019-06-01T13:18:15.803Z,2.57
2019-06-01T13:19:15.816Z,2.08
2019-06-01T13:20:15.789Z,2.14
2019-06-01T13:21:15.819Z,2.03
2019-06-01T13:22:15.829Z,1.94
2019-06-01T13:23:15.785Z,2.21
2019-06-01T13:24:15.806Z,2.21
2019-06-01T13:25:15.818Z,2.21
2019-06-01T13:26:15.787Z,1.08
2019-06-01T13:27:15.812Z,2.13
2019-06-01T13:28:15.846Z,2.16
2019-06-01T13:29:15.774Z,3.67
2019-06-01T13:30:15.865Z,1.92
2019-06-01T13:31:15.796Z,2.13
2019-06-01T13:32:15.826Z,1.61
2019-06-01T13:33:15.820Z,2.13
2019-06-01T13:34:15.890Z,3.73
2019-06-01T13:35:15.858Z,2.26
2019-06-01T13:36:16.139Z,3.34
2019-06-01T13:37:15.836Z,6.51
2019-06-01T13:38:15.813Z,2.34
2019-06-01T13:39:15.851Z,3.97
2019-06-01T13:40:15.845Z,4.17
2019-06-01T13:41:15.828Z,3.20
2019-06-01T13:42:15.854Z,1.52
2019-06-01T13:43:15.861Z,2.11
2019-06-01T13:44:15.869Z,2.54
2019-06-01T13:45:15.864Z,2.01
2019-06-01T13:46:15.935Z,2.62
2019-06-01T13:47:15.934Z,3.05
2019-06-01T13:48:15.919Z,1.91
2019-06-01T13:49:15.933Z,2.61
2019-06-01T13:50:15.922Z,3.20
2019-06-01T13:51:15.983Z,3.84
2019-06-01T13:52:16.020Z,1.43
2019-06-01T13:53:15.957Z,1.58
2019-06-01T13:54:16.020Z,2.60
2019-06-01T13:55:16.009Z,1.42
2019-06-01T13:56:15.990Z,1.09
2019-06-01T13:57:16.052Z,4.98
2019-06-01T13:58:16.030Z,3.42
2019-06-01T13:59:16.025Z,2.64
2019-06-01T14:00:29.237Z,2.59
2019-06-01T14:01:16.082Z,1.17
2019-06-01T14:02:16.081Z,3.99
2019-06-01T14:03:16.126Z,2.44
2019-06-01T14:04:16.067Z,2.52
2019-06-01T14:05:16.078Z,1.51
2019-06-01T14:06:16.064Z,1.57
2019-06-01T14:07:17.842Z,1.95
2019-06-01T14:08:28.454Z,1.70
2019-06-01T14:09:16.073Z,2.59
2019-06-01T14:10:16.093Z,2.52
2019-06-01T14:11:16.059Z,2.30
2019-06-01T14:12:16.065Z,0.91
2019-06-01T14:13:16.100Z,1.30
2019-06-01T14:14:16.069Z,0.58
2019-06-01T14:15:16.104Z,3.17
2019-06-01T14:16:16.113Z,3.16
2019-06-01T14:17:16.075Z,1.26
2019-06-01T14:18:16.095Z,2.46
2019-06-01T14:19:16.097Z,1.96
2019-06-01T14:20:16.070Z,2.98
2019-06-01T14:21:16.087Z,1.66
2019-06-01T14:22:16.149Z,1.66
2019-06-01T14:23:16.096Z,2.57
2019-06-01T14:24:16.084Z,2.11
2019-06-01T14:25:16.092Z,2.32
2019-06-01T14:26:16.109Z,3.04
2019-06-01T14:27:16.099Z,2.05
2019-06-01T14:28:16.155Z,1.22
2019-06-01T14:29:16.131Z,1.70
2019-06-01T14:30:16.107Z,3.82
2019-06-01T14:31:16.132Z,3.79
2019-06-01T14:32:16.105Z,2.95
2019-06-01T14:33:16.138Z,2.22
2019-06-01T14:34:16.158Z,2.58
2019-06-01T14:35:16.089Z,1.70
2019-06-01T14:36:16.131Z,2.01
2019-06-01T14:37:16.139Z,1.03
2019-06-01T14:38:16.109Z,3.36
2019-06-01T14:39:16.134Z,2.07
2019-06-01T14:40:16.188Z,1.97
2019-06-01T14:41:16.104Z,2.03
2019-06-01T14:42:16.123Z,2.03
2019-06-01T14:43:16.146Z,4.55
2019-06-01T14:44:16.098Z,3.55
2019-06-01T14:45:16.114Z,7.36
2019-06-01T14:46:16.135Z,3.75
2019-06-01T14:47:18.601Z,1.93
2019-06-01T14:48:16.150Z,2.43
2019-06-01T14:49:16.140Z,3.90
2019-06-01T14:50:16.151Z,2.36
2019-06-01T14:51:16.129Z,2.16
2019-06-01T14:52:16.149Z,2.53
2019-06-01T14:53:16.110Z,3.95
2019-06-01T14:54:16.144Z,3.19
2019-06-01T14:55:16.130Z,2.10
2019-06-01T14:56:16.178Z,2.87
2019-06-01T14:57:16.115Z,4.41
2019-06-01T14:58:16.156Z,1.98
2019-06-01T14:59:16.138Z,1.75
2019-06-01T15:00:16.148Z,1.46
2019-06-01T15:01:31.345Z,4.09
2019-06-01T15:02:16.516Z,2.70
2019-06-01T15:03:16.151Z,3.45
2019-06-01T15:04:16.210Z,4.19
2019-06-01T15:05:16.120Z,3.10
2019-06-01T15:06:16.107Z,4.16
2019-06-01T15:07:16.182Z,3.58
2019-06-01T15:08:16.125Z,3.68
2019-06-01T15:09:18.931Z,4.82
2019-06-01T15:10:16.195Z,3.00
2019-06-01T15:11:16.117Z,3.83
2019-06-01T15:12:16.139Z,1.11
2019-06-01T15:13:16.148Z,2.16
2019-06-01T15:14:16.117Z,4.18
2019-06-01T15:15:16.177Z,3.03
2019-06-01T15:16:16.239Z,2.39
2019-06-01T15:17:16.150Z,1.58
2019-06-01T15:18:16.149Z,2.67
2019-06-01T15:19:16.198Z,1.71
2019-06-01T15:20:16.137Z,1.20
2019-06-01T15:21:16.182Z,0.92
2019-06-01T15:22:16.177Z,1.57
2019-06-01T15:23:16.134Z,1.85
2019-06-01T15:24:16.166Z,3.25
2019-06-01T15:25:16.169Z,2.37
2019-06-01T15:26:16.155Z,2.74
2019-06-01T15:27:16.170Z,3.77
2019-06-01T15:28:16.191Z,4.74
2019-06-01T15:29:16.200Z,4.14
2019-06-01T15:30:16.177Z,2.22
2019-06-01T15:31:16.195Z,1.84
2019-06-01T15:32:16.170Z,3.22
2019-06-01T15:33:16.220Z,1.71
2019-06-01T15:34:16.226Z,1.38
2019-06-01T15:35:16.171Z,2.56
2019-06-01T15:36:16.203Z,1.43
2019-06-01T15:37:16.186Z,2.45
2019-06-01T15:38:16.161Z,6.20
2019-06-01T15:39:24.790Z,4.19
2019-06-01T15:40:16.212Z,2.26
2019-06-01T15:41:16.184Z,1.78
2019-06-01T15:42:16.182Z,2.12
2019-06-01T15:43:16.183Z,1.27
2019-06-01T15:44:16.179Z,2.75
2019-06-01T15:45:16.220Z,3.57
2019-06-01T15:46:16.230Z,4.93
2019-06-01T15:47:16.193Z,2.52
2019-06-01T15:48:16.206Z,3.91
2019-06-01T15:49:16.232Z,2.77
2019-06-01T15:50:16.178Z,2.59
2019-06-01T15:51:16.206Z,2.74
2019-06-01T15:52:16.183Z,2.18
2019-06-01T15:53:16.160Z,1.69
2019-06-01T15:54:16.200Z,1.29
2019-06-01T15:55:16.203Z,2.21
2019-06-01T15:56:16.188Z,3.38
2019-06-01T15:57:16.204Z,1.83
2019-06-01T15:58:16.235Z,3.18
2019-06-01T15:59:16.180Z,2.37
2019-06-01T16:00:16.186Z,1.55
2019-06-01T16:01:16.228Z,2.13
2019-06-01T16:02:16.237Z,3.54